Time;durP1;ratioP1;P1;durP2;ratioP2;P2;SDS_P1;SDS_P2;PMS_P1;PMS_P2;Temp;Humidity;BMP_temperature;BMP_pressure;BME280_temperature;BME280_humidity;BME280_pressure;Samples;Min_cycle;Max_cycle;Signal;HPM_P1;HPM_P2
2022/03/24 00:00:55;;;;;;;42.22;17.42;;;;;;;6.42;64.75;101029.25;5037001;28;20229;-76
2022/03/24 00:03:22;;;;;;;26.77;9.32;;;;;;;6.31;64.92;101009.00;5014756;28;20228;-78
2022/03/24 00:05:48;;;;;;;38.92;12.98;;;;;;;6.32;64.76;101021.94;5013208;28;20215;-77
2022/03/24 00:08:15;;;;;;;23.03;9.63;;;;;;;6.37;65.45;101020.47;5011534;28;20208;-77
2022/03/24 00:10:44;;;;;;;26.67;10.45;;;;;;;6.47;64.95;101019.19;5011406;28;20259;-76
2022/03/24 00:13:11;;;;;;;19.42;9.93;;;;;;;6.42;66.05;101008.66;5011787;28;20204;-77
2022/03/24 00:15:38;;;;;;;28.17;10.30;;;;;;;6.11;66.24;100984.88;5021146;28;20224;-77
2022/03/24 00:18:05;;;;;;;29.20;9.20;;;;;;;6.20;67.02;101005.91;5031025;28;20200;-77
2022/03/24 00:20:32;;;;;;;25.70;8.90;;;;;;;6.06;67.69;100999.25;5030790;28;20204;-77
2022/03/24 00:22:59;;;;;;;30.23;8.40;;;;;;;6.04;68.32;100993.13;5030910;28;20196;-76
2022/03/24 00:25:26;;;;;;;17.65;7.35;;;;;;;6.07;68.22;100988.09;5030560;28;20204;-77
2022/03/24 00:27:54;;;;;;;13.63;6.87;;;;;;;6.06;65.75;100970.91;5031012;28;20216;-77
2022/03/24 00:30:21;;;;;;;17.67;7.82;;;;;;;6.20;66.39;100990.47;5031133;28;20208;-76
2022/03/24 00:32:48;;;;;;;31.90;10.82;;;;;;;5.64;66.34;100899.34;5030832;28;20204;-77
2022/03/24 00:35:15;;;;;;;19.93;9.23;;;;;;;5.95;65.20;100982.41;5012056;28;20615;-76
2022/03/24 00:37:42;;;;;;;16.10;8.80;;;;;;;5.87;66.18;100976.00;5030662;28;20208;-77
2022/03/24 00:40:10;;;;;;;18.77;6.87;;;;;;;5.85;66.60;100978.44;5011829;28;20223;-77
2022/03/24 00:42:37;;;;;;;21.40;5.73;;;;;;;5.89;65.39;100976.94;5030786;28;20220;-76
2022/03/24 00:45:10;;;;;;;15.80;6.57;;;;;;;5.89;65.29;100946.94;5030638;28;20214;-76
2022/03/24 00:47:36;;;;;;;18.03;8.17;;;;;;;5.85;66.93;100949.28;5030593;28;20568;-77
2022/03/24 00:50:04;;;;;;;19.77;8.63;;;;;;;5.88;67.62;100967.47;5030409;28;20200;-77
2022/03/24 00:52:30;;;;;;;16.80;7.43;;;;;;;5.76;67.49;100965.16;5029866;28;20204;-76
2022/03/24 00:54:57;;;;;;;8.90;5.73;;;;;;;5.77;67.09;100960.91;4995307;28;20196;-76
2022/03/24 00:57:24;;;;;;;17.73;4.90;;;;;;;5.83;66.80;100959.50;5029655;28;20633;-77
2022/03/24 00:59:51;;;;;;;14.97;6.47;;;;;;;5.93;66.18;100940.25;5030205;28;20197;-77
2022/03/24 01:02:19;;;;;;;21.73;7.07;;;;;;;5.97;66.16;100960.16;5030198;28;20231;-77
2022/03/24 01:04:46;;;;;;;13.93;6.32;;;;;;;6.06;66.73;100962.31;5029518;28;20196;-77
2022/03/24 01:07:12;;;;;;;18.73;8.30;;;;;;;5.91;66.31;100952.16;5029842;28;20224;-77
2022/03/24 01:09:39;;;;;;;20.35;7.03;;;;;;;5.91;66.07;100957.31;5031911;28;20258;-76
2022/03/24 01:12:07;;;;;;;13.00;6.17;;;;;;;5.99;66.32;100956.00;5033558;28;20207;-76
2022/03/24 01:14:35;;;;;;;22.30;6.68;;;;;;;5.48;65.97;100865.22;5031050;28;20679;-77
2022/03/24 01:17:04;;;;;;;16.25;7.18;;;;;;;5.75;67.55;100921.31;5033083;28;20680;-77
2022/03/24 01:19:33;;;;;;;14.80;7.03;;;;;;;5.72;68.01;100931.47;5033149;28;20262;-76
2022/03/24 01:22:00;;;;;;;15.50;7.20;;;;;;;5.56;70.38;100934.13;5032828;28;20307;-77
2022/03/24 01:24:28;;;;;;;14.20;5.67;;;;;;;5.59;70.80;100927.44;5033556;28;20704;-77
2022/03/24 01:26:55;;;;;;;14.37;5.20;;;;;;;5.74;69.53;100933.31;5033552;28;20586;-76
2022/03/24 01:29:23;;;;;;;16.50;6.53;;;;;;;5.79;69.59;100928.38;5033039;28;20207;-76
2022/03/24 01:31:50;;;;;;;26.20;8.53;;;;;;;5.83;69.88;100925.16;5032922;28;20207;-76
2022/03/24 01:34:17;;;;;;;16.83;7.53;;;;;;;5.64;72.76;100912.22;5032737;28;20207;-77
2022/03/24 01:36:46;;;;;;;13.17;7.07;;;;;;;5.43;77.67;100894.94;5033658;28;20208;-77
2022/03/24 01:39:12;;;;;;;26.73;10.10;;;;;;;5.34;79.26;100922.81;5033230;28;20648;-76
2022/03/24 01:41:40;;;;;;;16.27;7.50;;;;;;;5.22;81.02;100911.91;5033200;28;20311;-77
2022/03/24 01:44:12;;;;;;;16.67;7.63;;;;;;;5.29;82.04;100916.53;5033217;28;20742;-76
2022/03/24 01:46:39;;;;;;;17.67;7.77;;;;;;;5.26;83.08;100921.53;5033147;28;20204;-77
2022/03/24 01:49:06;;;;;;;14.67;7.40;;;;;;;5.33;87.25;100899.56;5033608;28;20660;-77
2022/03/24 01:51:33;;;;;;;10.43;6.40;;;;;;;5.16;91.70;100893.63;5033669;28;20197;-77
2022/03/24 01:54:01;;;;;;;23.13;7.37;;;;;;;5.10;93.85;100911.28;5033292;28;20663;-77
2022/03/24 01:56:29;;;;;;;13.57;7.03;;;;;;;4.95;94.97;100908.84;5033177;28;20358;-76
2022/03/24 01:58:57;;;;;;;14.30;7.57;;;;;;;4.73;97.00;100897.41;4998427;28;20204;-76
2022/03/24 02:01:30;;;;;;;14.27;8.00;;;;;;;4.79;98.90;100914.00;5033100;28;20235;-76
2022/03/24 02:03:58;;;;;;;11.63;6.83;;;;;;;4.71;99.94;100904.16;5033341;28;20626;-76
2022/03/24 02:06:26;;;;;;;14.83;7.57;;;;;;;4.64;100.00;100902.09;5033137;28;20192;-77
2022/03/24 02:08:54;;;;;;;17.50;7.80;;;;;;;4.61;100.00;100907.03;5033156;28;20243;-77
2022/03/24 02:11:22;;;;;;;14.70;7.53;;;;;;;4.62;100.00;100899.41;5032984;28;20295;-76
2022/03/24 02:13:49;;;;;;;17.80;7.33;;;;;;;4.50;100.00;100901.34;5033118;28;20215;-77
2022/03/24 02:16:15;;;;;;;15.03;8.33;;;;;;;4.32;100.00;100898.69;5032503;28;20278;-77
2022/03/24 02:18:43;;;;;;;21.73;8.93;;;;;;;4.26;100.00;100900.94;5032424;28;20200;-77
2022/03/24 02:21:10;;;;;;;13.80;8.37;;;;;;;4.22;100.00;100901.59;5032263;28;20719;-77
2022/03/24 02:23:38;;;;;;;17.60;8.60;;;;;;;4.25;100.00;100900.84;5031930;28;20266;-77
2022/03/24 02:26:07;;;;;;;22.77;8.87;;;;;;;4.23;100.00;100908.50;5032332;28;20208;-77
2022/03/24 02:28:34;;;;;;;20.43;8.83;;;;;;;4.02;100.00;100884.25;5032190;28;20204;-77
2022/03/24 02:31:02;;;;;;;19.13;9.10;;;;;;;4.11;100.00;100894.09;5032156;28;20208;-77
2022/03/24 02:33:28;;;;;;;23.40;9.87;;;;;;;3.93;100.00;100876.03;5032092;28;20742;-77
2022/03/24 02:35:56;;;;;;;16.77;8.80;;;;;;;4.11;100.00;100897.56;5032149;28;20215;-77
2022/03/24 02:38:23;;;;;;;20.40;9.03;;;;;;;4.09;100.00;100888.03;5032235;28;20207;-76
2022/03/24 02:40:51;;;;;;;23.57;9.20;;;;;;;3.78;100.00;100854.72;5031900;28;20680;-77
2022/03/24 02:43:19;;;;;;;22.97;9.03;;;;;;;3.79;100.00;100866.72;5031796;28;20231;-77
2022/03/24 02:45:46;;;;;;;17.47;8.47;;;;;;;3.67;100.00;100843.88;5032312;28;20668;-77
2022/03/24 02:48:13;;;;;;;19.33;10.13;;;;;;;3.94;100.00;100880.38;5031846;28;20756;-77
2022/03/24 02:50:40;;;;;;;23.73;12.07;;;;;;;3.85;100.00;100857.66;5031311;28;20196;-77
2022/03/24 02:53:06;;;;;;;31.17;12.33;;;;;;;4.10;100.00;100874.41;5031466;28;20211;-77
2022/03/24 02:55:33;;;;;;;23.53;10.77;;;;;;;4.16;100.00;100874.72;5031640;28;20193;-76
2022/03/24 02:58:02;;;;;;;35.10;15.17;;;;;;;4.21;100.00;100873.28;5032322;28;20192;-77
2022/03/24 03:00:29;;;;;;;33.90;12.87;;;;;;;4.08;100.00;100871.75;5031556;28;20354;-77
2022/03/24 03:02:55;;;;;;;30.30;10.53;;;;;;;4.05;100.00;100865.56;5031476;28;20242;-77
2022/03/24 03:05:23;;;;;;;24.73;10.50;;;;;;;3.94;100.00;100868.44;5031608;28;20200;-77
2022/03/24 03:07:51;;;;;;;33.07;11.57;;;;;;;3.90;100.00;100865.63;5031605;28;20614;-77
2022/03/24 03:10:18;;;;;;;22.07;10.37;;;;;;;3.82;100.00;100852.38;5031351;28;20610;-77
2022/03/24 03:12:46;;;;;;;23.70;9.93;;;;;;;3.80;100.00;100827.47;4996867;28;20208;-77
2022/03/24 03:15:14;;;;;;;21.60;9.33;;;;;;;4.03;100.00;100847.53;5031532;28;20232;-77
2022/03/24 03:17:41;;;;;;;22.27;9.43;;;;;;;4.05;100.00;100848.50;5031631;28;20216;-77
2022/03/24 03:20:10;;;;;;;19.43;8.73;;;;;;;4.13;100.00;100859.16;5031433;28;20735;-77
2022/03/24 03:22:37;;;;;;;17.67;9.13;;;;;;;3.98;100.00;100854.09;5031309;28;20585;-76
2022/03/24 03:25:05;;;;;;;25.40;8.73;;;;;;;3.76;100.00;100834.09;5031550;28;20215;-76
2022/03/24 03:27:32;;;;;;;17.57;9.33;;;;;;;3.77;100.00;100847.81;4996547;28;20204;-76
2022/03/24 03:29:59;;;;;;;16.90;9.20;;;;;;;3.84;100.00;100847.34;5030743;28;20231;-77
2022/03/24 03:32:27;;;;;;;17.47;9.17;;;;;;;3.95;100.00;100851.38;5011061;28;20208;-77
2022/03/24 03:34:54;;;;;;;19.47;8.53;;;;;;;3.79;100.00;100838.50;5009587;28;20209;-77
2022/03/24 03:37:21;;;;;;;19.47;8.97;;;;;;;3.70;100.00;100838.91;5013597;28;20673;-77
2022/03/24 03:39:49;;;;;;;21.93;9.73;;;;;;;3.63;100.00;100818.88;5031630;28;20206;-77
2022/03/24 03:42:17;;;;;;;24.23;10.67;;;;;;;3.63;100.00;100823.13;5031095;28;20777;-77
2022/03/24 03:44:44;;;;;;;20.03;10.07;;;;;;;3.78;100.00;100841.91;5031382;28;20228;-77
2022/03/24 03:47:11;;;;;;;23.17;9.60;;;;;;;3.78;100.00;100844.47;5031327;28;20262;-77
2022/03/24 03:49:39;;;;;;;22.17;10.07;;;;;;;3.81;100.00;100845.50;5012456;28;20200;-77
2022/03/24 03:52:06;;;;;;;24.03;11.57;;;;;;;3.66;100.00;100854.03;5031181;28;20599;-78
2022/03/24 03:54:33;;;;;;;27.07;10.53;;;;;;;3.69;100.00;100862.78;5031362;28;20219;-78
2022/03/24 03:57:00;;;;;;;22.20;11.83;;;;;;;3.67;100.00;100846.44;5031149;28;20204;-77
2022/03/24 03:59:27;;;;;;;22.37;10.73;;;;;;;3.69;100.00;100843.94;5031306;28;20872;-78
2022/03/24 04:01:55;;;;;;;26.60;12.23;;;;;;;3.70;100.00;100846.59;5030907;28;20769;-79
2022/03/24 04:04:21;;;;;;;26.30;13.27;;;;;;;4.45;100.00;100829.22;5012632;28;20199;-77
2022/03/24 04:06:49;;;;;;;27.37;13.20;;;;;;;4.35;100.00;100836.38;5031242;28;20200;-77
2022/03/24 04:09:16;;;;;;;19.63;10.23;;;;;;;4.02;100.00;100827.81;5031011;28;20215;-77
2022/03/24 04:11:43;;;;;;;19.70;11.10;;;;;;;3.92;100.00;100843.53;5031179;28;20200;-77
2022/03/24 04:14:10;;;;;;;19.73;10.50;;;;;;;3.92;100.00;100846.94;5030974;28;20196;-85
2022/03/24 04:16:37;;;;;;;21.40;10.73;;;;;;;4.13;100.00;100839.53;5030685;28;20699;-76
2022/03/24 04:19:05;;;;;;;27.07;12.23;;;;;;;3.93;100.00;100830.75;5030852;28;20199;-76
2022/03/24 04:21:32;;;;;;;27.30;14.50;;;;;;;3.96;100.00;100855.69;5030719;28;20204;-76
2022/03/24 04:24:00;;;;;;;35.80;15.43;;;;;;;3.98;100.00;100854.97;5030426;28;20224;-79
2022/03/24 04:26:27;;;;;;;42.90;16.83;;;;;;;3.85;100.00;100842.28;5030623;28;20192;-77
2022/03/24 04:28:54;;;;;;;47.03;16.37;;;;;;;3.78;100.00;100842.75;5030630;28;20196;-77
2022/03/24 04:31:22;;;;;;;38.43;16.23;;;;;;;3.74;100.00;100848.53;5030405;28;20200;-77
2022/03/24 04:33:49;;;;;;;36.20;15.87;;;;;;;3.77;100.00;100847.81;5029039;28;20211;-76
2022/03/24 04:36:16;;;;;;;36.00;15.70;;;;;;;3.69;100.00;100839.72;5030155;28;20215;-76
2022/03/24 04:38:43;;;;;;;35.27;14.10;;;;;;;3.64;100.00;100824.88;5030878;28;20574;-77
2022/03/24 04:41:11;;;;;;;26.80;12.43;;;;;;;3.85;100.00;100841.44;5029989;28;20595;-76
2022/03/24 04:43:38;;;;;;;22.67;10.07;;;;;;;3.89;100.00;100843.31;5032593;28;20220;-77
2022/03/24 04:46:05;;;;;;;22.90;10.67;;;;;;;4.01;100.00;100841.44;5034176;28;20934;-77
2022/03/24 04:48:36;;;;;;;26.30;10.93;;;;;;;4.10;100.00;100844.50;5034359;28;20200;-77
2022/03/24 04:51:04;;;;;;;28.87;12.83;;;;;;;4.47;100.00;100848.16;5034073;28;20208;-80
2022/03/24 04:53:31;;;;;;;30.27;11.20;;;;;;;4.71;100.00;100834.81;5033899;28;20295;-80
2022/03/24 04:55:58;;;;;;;24.00;12.47;;;;;;;5.10;100.00;100849.59;5034327;28;20207;-79
2022/03/24 04:58:27;;;;;;;26.03;11.67;;;;;;;5.56;94.88;100844.13;5034652;28;20227;-80
2022/03/24 05:00:54;;;;;;;77.20;28.67;;;;;;;5.44;90.40;100853.00;5033972;28;20211;-79
2022/03/24 05:03:21;;;;;;;19.60;10.55;;;;;;;5.46;88.60;100841.09;5033943;28;20298;-79
2022/03/24 05:05:48;;;;;;;26.70;9.80;;;;;;;5.57;87.94;100849.31;5034131;28;20672;-79
2022/03/24 05:08:15;;;;;;;23.43;9.90;;;;;;;5.40;88.15;100845.94;5034376;28;20211;-80
2022/03/24 05:10:42;;;;;;;29.47;11.87;;;;;;;5.33;89.76;100849.03;5034485;28;20208;-80
2022/03/24 05:13:08;;;;;;;22.97;11.03;;;;;;;5.14;91.31;100838.66;5034562;28;20201;-80
2022/03/24 05:15:37;;;;;;;27.60;10.70;;;;;;;5.09;92.07;100842.72;5034241;28;20199;-80
2022/03/24 05:18:05;;;;;;;23.07;10.80;;;;;;;5.07;93.05;100833.16;5034128;28;20254;-79
2022/03/24 05:20:32;;;;;;;21.57;11.00;;;;;;;5.23;92.07;100839.13;5031988;28;20890;-79
2022/03/24 05:22:58;;;;;;;23.33;11.33;;;;;;;5.35;94.25;100831.97;5033963;28;20236;-79
2022/03/24 05:25:26;;;;;;;24.37;12.17;;;;;;;5.53;93.12;100825.97;5033912;28;20207;-79
2022/03/24 05:27:52;;;;;;;26.30;11.93;;;;;;;5.69;90.63;100825.84;5034106;28;20906;-81
2022/03/24 05:30:19;;;;;;;27.03;11.87;;;;;;;5.90;88.87;100837.16;5033786;28;20668;-80
2022/03/24 05:32:47;;;;;;;27.20;10.53;;;;;;;6.09;86.63;100824.31;5031872;28;20597;-81
2022/03/24 05:35:14;;;;;;;35.03;10.43;;;;;;;5.92;84.76;100784.09;5038724;28;20589;-81
2022/03/24 05:37:42;;;;;;;23.63;10.63;;;;;;;6.29;82.80;100827.75;5038910;28;20204;-81
2022/03/24 05:40:10;;;;;;;24.02;11.45;;;;;;;6.55;80.31;100831.47;5037448;28;20196;-81
2022/03/24 05:42:36;;;;;;;33.08;14.07;;;;;;;6.64;81.97;100824.13;5033769;28;20290;-81
2022/03/24 05:45:04;;;;;;;51.42;18.83;;;;;;;6.70;84.21;100827.88;5034817;28;20212;-82
2022/03/24 05:47:31;;;;;;;37.85;15.45;;;;;;;6.79;85.25;100824.78;5034449;28;20354;-79
2022/03/24 05:49:59;;;;;;;44.55;19.42;;;;;;;7.19;100.00;100830.75;5033649;28;20283;-83
2022/03/24 05:52:26;;;;;;;40.85;17.70;;;;;;;7.11;100.00;100801.19;5033471;28;20207;-81
2022/03/24 05:54:53;;;;;;;48.60;18.00;;;;;;;7.22;89.10;100836.03;5032532;28;20203;-81
2022/03/24 05:57:20;;;;;;;39.67;16.35;;;;;;;7.21;82.96;100810.16;5033401;28;20197;-81
2022/03/24 05:59:48;;;;;;;29.60;14.57;;;;;;;7.40;82.55;100834.19;5033307;28;20200;-82
2022/03/24 06:02:15;;;;;;;34.88;14.88;;;;;;;7.39;82.84;100835.00;5033212;28;20240;-81
2022/03/24 06:04:43;;;;;;;29.38;13.75;;;;;;;7.61;82.26;100835.84;5033938;28;20256;-79
2022/03/24 06:07:14;;;;;;;32.90;14.20;;;;;;;7.73;80.92;100833.75;5032969;28;20224;-80
2022/03/24 06:09:41;;;;;;;29.60;14.48;;;;;;;7.76;82.03;100834.75;5033033;28;20587;-80
2022/03/24 06:12:10;;;;;;;28.00;13.60;;;;;;;7.46;84.14;100834.41;5033265;28;20215;-80
2022/03/24 06:14:37;;;;;;;31.15;12.82;;;;;;;7.41;86.52;100828.22;5033251;28;20204;-80
2022/03/24 06:17:05;;;;;;;40.47;12.25;;;;;;;7.63;85.40;100839.38;5032890;28;20199;-78
2022/03/24 06:19:35;;;;;;;20.25;10.65;;;;;;;7.27;87.13;100785.53;5032487;28;20208;-80
2022/03/24 06:22:02;;;;;;;23.40;10.07;;;;;;;7.73;88.31;100818.25;5031592;28;20192;-80
2022/03/24 06:24:30;;;;;;;17.10;9.55;;;;;;;7.82;87.56;100803.97;5031789;28;20227;-80
2022/03/24 06:26:57;;;;;;;18.50;9.75;;;;;;;8.14;86.28;100825.81;4997208;28;20227;-78
2022/03/24 06:29:24;;;;;;;21.52;10.18;;;;;;;8.19;86.99;100826.88;5032131;28;20196;-81
2022/03/24 06:31:51;;;;;;;24.08;9.52;;;;;;;8.30;83.92;100830.78;5031961;28;20200;-80
2022/03/24 06:34:18;;;;;;;17.95;8.73;;;;;;;8.40;80.67;100827.69;5032642;28;20204;-80
2022/03/24 06:36:45;;;;;;;20.67;9.35;;;;;;;8.42;77.49;100841.53;5013415;28;20207;-80
2022/03/24 06:39:12;;;;;;;21.35;9.18;;;;;;;8.49;75.31;100834.00;5032228;28;20208;-80
2022/03/24 06:41:40;;;;;;;13.15;7.63;;;;;;;8.48;74.13;100842.59;5032394;28;20204;-79
2022/03/24 06:44:07;;;;;;;19.67;9.77;;;;;;;8.45;75.71;100831.28;5032104;28;20216;-80
2022/03/24 06:46:34;;;;;;;17.40;9.35;;;;;;;8.58;76.50;100835.22;5031751;28;20254;-79
2022/03/24 06:49:03;;;;;;;29.25;9.90;;;;;;;8.17;76.52;100838.84;5032247;28;20667;-79
2022/03/24 06:51:30;;;;;;;15.57;8.70;;;;;;;8.14;79.15;100848.19;5032122;28;20204;-78
2022/03/24 06:53:57;;;;;;;18.95;8.45;;;;;;;8.09;78.62;100854.91;5032253;28;20204;-79
2022/03/24 06:56:24;;;;;;;13.90;6.63;;;;;;;7.95;74.17;100829.44;5032322;28;20204;-79
2022/03/24 06:58:52;;;;;;;16.95;6.72;;;;;;;8.25;70.16;100846.88;5032168;28;20703;-78
2022/03/24 07:01:19;;;;;;;10.10;6.38;;;;;;;7.94;68.03;100850.03;5031692;28;20591;-80
2022/03/24 07:03:47;;;;;;;15.00;7.65;;;;;;;8.26;67.39;100849.53;5031278;28;20759;-81
2022/03/24 07:06:14;;;;;;;12.82;7.22;;;;;;;8.50;66.36;100849.56;5028392;28;20467;-79
2022/03/24 07:08:40;;;;;;;21.75;7.93;;;;;;;8.38;66.57;100851.72;5031741;28;20203;-81
2022/03/24 07:11:07;;;;;;;15.00;7.85;;;;;;;8.38;66.65;100831.91;5031207;28;20619;-80
2022/03/24 07:13:34;;;;;;;13.55;8.55;;;;;;;8.68;65.20;100844.16;5031426;28;20200;-80
2022/03/24 07:16:02;;;;;;;16.92;8.27;;;;;;;8.74;64.91;100842.66;5012677;28;20212;-78
2022/03/24 07:18:29;;;;;;;23.52;9.40;;;;;;;8.55;65.40;100844.56;5031423;28;20574;-80
2022/03/24 07:20:56;;;;;;;23.90;11.43;;;;;;;8.74;66.38;100846.97;5031514;28;20226;-80
2022/03/24 07:23:23;;;;;;;25.23;9.30;;;;;;;8.84;66.54;100843.88;5031410;28;20224;-79
2022/03/24 07:25:50;;;;;;;27.58;9.80;;;;;;;8.97;66.43;100825.34;5031726;28;20690;-79
2022/03/24 07:28:16;;;;;;;16.90;9.45;;;;;;;9.15;65.53;100825.94;5031621;28;20661;-81
2022/03/24 07:30:50;;;;;;;19.30;8.45;;;;;;;9.26;64.67;100834.94;5031200;28;20255;-79
2022/03/24 07:33:19;;;;;;;20.55;9.30;;;;;;;9.26;63.50;100822.00;5030965;28;20196;-79
2022/03/24 07:35:46;;;;;;;26.23;11.85;;;;;;;9.42;62.77;100826.81;5031083;28;20291;-80
2022/03/24 07:38:14;;;;;;;17.60;7.65;;;;;;;9.55;60.56;100837.56;5031007;28;20597;-81
2022/03/24 07:40:41;;;;;;;17.88;8.50;;;;;;;9.52;60.39;100814.16;5029189;28;20192;-80
2022/03/24 07:43:08;;;;;;;19.42;9.45;;;;;;;9.70;60.58;100828.53;5030573;28;20211;-80
2022/03/24 07:45:38;;;;;;;16.73;8.00;;;;;;;9.90;60.23;100839.50;5030836;28;20297;-80
2022/03/24 07:48:11;;;;;;;18.13;8.98;;;;;;;9.37;60.83;100750.75;5031172;28;20274;-80
2022/03/24 07:50:42;;;;;;;25.80;8.82;;;;;;;9.55;60.29;100746.94;5030595;28;20671;-80
2022/03/24 07:53:22;;;;;;;14.88;7.28;;;;;;;10.18;59.93;100830.84;5030409;28;20223;-79
2022/03/24 07:55:48;;;;;;;23.05;8.27;;;;;;;10.14;58.66;100837.66;5030542;28;20251;-80
2022/03/24 07:58:17;;;;;;;19.80;7.90;;;;;;;10.33;58.29;100833.88;5030344;28;20199;-80
2022/03/24 08:00:45;;;;;;;26.20;12.30;;;;;;;10.33;58.57;100844.25;5030383;28;20688;-80
2022/03/24 08:03:14;;;;;;;22.33;10.82;;;;;;;10.41;58.75;100848.81;5030093;28;20657;-80
2022/03/24 08:05:42;;;;;;;28.63;11.60;;;;;;;10.54;57.79;100841.38;5030502;28;20203;-80
2022/03/24 08:08:10;;;;;;;12.00;7.82;;;;;;;10.44;57.41;100828.16;5030864;28;20196;-80
2022/03/24 08:10:37;;;;;;;35.22;13.85;;;;;;;10.50;57.64;100842.13;5030703;28;20262;-79
2022/03/24 08:13:04;;;;;;;31.20;13.50;;;;;;;10.42;57.22;100844.50;5030531;28;20204;-80
2022/03/24 08:15:31;;;;;;;26.80;13.02;;;;;;;10.62;57.16;100850.22;5030493;28;20227;-79
2022/03/24 08:17:58;;;;;;;17.98;8.85;;;;;;;10.60;56.94;100823.38;5031716;28;20191;-80
2022/03/24 08:20:28;;;;;;;12.77;8.13;;;;;;;10.88;56.22;100823.25;5034353;28;20211;-80
2022/03/24 08:22:57;;;;;;;26.42;12.25;;;;;;;11.05;56.00;100832.34;5015936;28;20671;-80
2022/03/24 08:25:24;;;;;;;41.97;14.73;;;;;;;11.10;55.38;100830.72;5034456;28;20228;-80
2022/03/24 08:27:51;;;;;;;20.75;9.77;;;;;;;11.21;54.05;100818.91;4999518;28;20647;-81
2022/03/24 08:30:18;;;;;;;28.00;10.13;;;;;;;11.53;53.51;100835.22;5034218;28;20703;-80
2022/03/24 08:32:44;;;;;;;21.00;8.90;;;;;;;11.58;52.51;100830.16;5034606;28;20279;-80
2022/03/24 08:35:11;;;;;;;10.68;5.93;;;;;;;11.77;50.91;100824.56;5034266;28;20196;-80
2022/03/24 08:37:38;;;;;;;17.13;7.28;;;;;;;12.02;49.88;100812.97;5034247;28;20203;-80
2022/03/24 08:40:08;;;;;;;10.52;6.32;;;;;;;12.33;49.41;100830.94;5034162;28;20200;-82
2022/03/24 08:42:36;;;;;;;15.00;5.88;;;;;;;12.43;48.53;100820.75;5034072;28;20200;-77
2022/03/24 08:45:03;;;;;;;20.85;7.68;;;;;;;12.20;48.00;100801.22;5033765;28;20255;-76
2022/03/24 08:47:30;;;;;;;11.07;6.45;;;;;;;12.56;47.96;100821.84;5033871;28;20196;-79
2022/03/24 08:49:57;;;;;;;17.40;6.38;;;;;;;12.57;47.00;100815.81;5034283;28;20262;-81
2022/03/24 08:52:25;;;;;;;12.23;5.40;;;;;;;12.79;48.84;100807.53;5031736;28;20586;-77
2022/03/24 08:54:52;;;;;;;16.55;5.55;;;;;;;12.72;47.86;100816.09;5033986;28;20204;-75
2022/03/24 08:57:25;;;;;;;25.08;7.93;;;;;;;12.93;47.39;100803.47;5033888;28;20684;-80
2022/03/24 08:59:53;;;;;;;81.85;13.13;;;;;;;13.23;46.92;100810.94;5033597;28;20196;-78
2022/03/24 09:02:20;;;;;;;13.95;6.53;;;;;;;12.91;45.96;100749.63;5033905;28;20728;-78
2022/03/24 09:04:47;;;;;;;11.15;6.32;;;;;;;13.29;46.36;100813.63;5033623;28;20230;-78
2022/03/24 09:07:14;;;;;;;17.75;5.63;;;;;;;13.26;45.68;100804.88;5033713;28;20290;-77
2022/03/24 09:09:41;;;;;;;15.70;6.78;;;;;;;13.46;45.62;100806.06;5033829;28;20247;-78
2022/03/24 09:12:09;;;;;;;10.68;5.97;;;;;;;13.53;44.59;100807.03;5033813;28;20192;-78
2022/03/24 09:14:38;;;;;;;7.55;4.25;;;;;;;13.50;45.30;100783.53;5034317;28;20230;-78
2022/03/24 09:17:05;;;;;;;15.90;6.57;;;;;;;13.91;44.41;100798.03;5034077;28;20236;-78
2022/03/24 09:19:33;;;;;;;9.77;4.40;;;;;;;13.74;44.05;100760.41;5033582;28;20227;-77
2022/03/24 09:21:59;;;;;;;12.25;4.80;;;;;;;14.09;43.85;100792.16;5033525;28;20639;-78
2022/03/24 09:24:27;;;;;;;24.02;12.07;;;;;;;14.31;43.74;100784.56;5033287;28;20232;-78
2022/03/24 09:26:53;;;;;;;15.05;7.32;;;;;;;14.39;42.59;100782.09;5031637;28;20235;-78
2022/03/24 09:29:21;;;;;;;10.38;5.18;;;;;;;14.30;42.68;100775.00;5030417;28;20679;-77
2022/03/24 09:31:50;;;;;;;19.92;6.05;;;;;;;14.61;42.43;100773.63;5033692;28;20242;-77
2022/03/24 09:34:16;;;;;;;16.45;7.10;;;;;;;14.71;42.14;100751.97;5033611;28;20655;-78
2022/03/24 09:36:43;;;;;;;15.57;5.28;;;;;;;14.76;41.59;100767.69;5033666;28;20199;-78
2022/03/24 09:39:10;;;;;;;18.55;6.05;;;;;;;14.88;41.44;100752.97;5033279;28;20242;-78
2022/03/24 09:41:38;;;;;;;9.30;5.53;;;;;;;15.05;40.47;100766.19;5032991;28;20196;-77
2022/03/24 09:44:07;;;;;;;12.18;6.65;;;;;;;15.29;40.36;100760.25;5035546;28;20656;-77
2022/03/24 09:46:34;;;;;;;9.68;5.13;;;;;;;15.24;39.53;100773.28;5039433;28;20230;-78
2022/03/24 09:49:02;;;;;;;13.32;6.25;;;;;;;15.18;40.18;100720.13;5040328;28;20203;-76
2022/03/24 09:51:30;;;;;;;10.23;5.47;;;;;;;15.61;39.74;100763.09;5032763;28;20192;-76
2022/03/24 09:53:57;;;;;;;11.85;5.00;;;;;;;15.39;38.94;100710.69;5033272;28;20204;-86
2022/03/24 09:56:24;;;;;;;12.27;5.18;;;;;;;15.60;38.62;100754.38;5033236;28;20231;-78
2022/03/24 09:58:51;;;;;;;7.13;4.70;;;;;;;15.36;38.18;100695.00;5033349;28;20207;-80
2022/03/24 10:01:18;;;;;;;19.65;9.07;;;;;;;15.78;38.36;100732.69;5032820;28;20207;-77
2022/03/24 10:04:04;;;;;;;17.75;7.57;;;;;;;16.18;37.93;100737.19;5032678;28;20192;-78
2022/03/24 10:06:32;;;;;;;7.05;4.85;;;;;;;16.04;37.68;100731.03;5032586;28;20200;-76
2022/03/24 10:08:59;;;;;;;17.13;5.93;;;;;;;16.27;37.85;100723.25;5032412;28;20212;-77
2022/03/24 10:11:27;;;;;;;5.80;4.43;;;;;;;16.22;36.16;100733.72;5013787;28;20199;-77
2022/03/24 10:13:56;;;;;;;17.00;5.47;;;;;;;16.08;36.02;100685.72;5033156;28;20672;-77
2022/03/24 10:16:41;;;;;;;16.50;6.88;;;;;;;16.46;35.82;100716.28;5032570;28;20634;-77
2022/03/24 10:19:12;;;;;;;12.40;5.68;;;;;;;16.45;36.13;100697.09;5032318;28;20279;-78
2022/03/24 10:21:41;;;;;;;10.13;6.03;;;;;;;16.54;35.86;100709.34;5030430;28;20192;-78
2022/03/24 10:24:10;;;;;;;16.25;5.63;;;;;;;16.63;35.09;100693.66;5032321;28;20262;-77
2022/03/24 10:26:48;;;;;;;14.75;6.40;;;;;;;16.71;34.81;100705.00;5032375;28;20204;-79
2022/03/24 10:29:17;;;;;;;13.95;5.72;;;;;;;16.53;34.94;100663.94;5032175;28;20208;-77
2022/03/24 10:31:44;;;;;;;10.73;5.90;;;;;;;16.96;34.35;100714.59;5032288;28;20203;-77
2022/03/24 10:34:13;;;;;;;11.05;6.03;;;;;;;17.13;33.96;100718.06;5032118;28;20206;-76
2022/03/24 10:36:44;;;;;;;12.13;5.57;;;;;;;17.15;34.09;100704.97;5032316;28;20215;-77
2022/03/24 10:39:11;;;;;;;14.13;6.05;;;;;;;17.22;33.88;100718.06;5032012;28;20196;-78
2022/03/24 10:41:39;;;;;;;14.75;5.78;;;;;;;17.24;33.66;100705.81;5031769;28;20204;-80
2022/03/24 10:44:09;;;;;;;8.63;5.78;;;;;;;17.27;33.67;100705.81;5032067;28;20200;-77
2022/03/24 10:46:38;;;;;;;13.85;6.40;;;;;;;17.35;33.82;100685.69;5032157;28;20196;-77
2022/03/24 10:49:23;;;;;;;19.67;7.18;;;;;;;17.32;34.05;100683.09;5031851;28;20699;-78
2022/03/24 10:51:51;;;;;;;8.80;5.82;;;;;;;17.49;32.15;100695.25;5031742;28;20196;-77
2022/03/24 10:54:30;;;;;;;13.50;6.07;;;;;;;17.52;32.10;100683.00;5031628;28;20209;-77
2022/03/24 10:57:04;;;;;;;6.82;5.70;;;;;;;17.41;31.89;100670.84;5031956;28;20223;-76
2022/03/24 10:59:34;;;;;;;10.52;5.90;;;;;;;17.62;31.05;100674.25;5031660;28;20200;-78
2022/03/24 11:02:02;;;;;;;10.88;6.22;;;;;;;17.59;31.88;100673.41;5031452;28;20676;-79
2022/03/24 11:04:30;;;;;;;16.58;6.13;;;;;;;17.67;31.95;100663.75;5031484;28;20232;-79
2022/03/24 11:06:57;;;;;;;11.75;6.30;;;;;;;17.56;31.65;100650.69;5031462;28;20207;-83
2022/03/24 11:09:26;;;;;;;24.45;6.63;;;;;;;17.85;30.95;100668.91;5031359;28;20199;-82
2022/03/24 11:12:26;;;;;;;12.25;5.93;;;;;;;17.94;30.91;100661.00;5031570;28;20284;-78
2022/03/24 11:14:55;;;;;;;13.13;5.93;;;;;;;17.62;31.60;100592.13;5031181;28;20208;-79
2022/03/24 11:17:24;;;;;;;15.40;6.63;;;;;;;17.72;30.31;100628.78;5031234;28;20207;-78
2022/03/24 11:19:58;;;;;;;11.90;6.00;;;;;;;17.83;29.92;100647.09;5031505;28;20220;-78
2022/03/24 11:22:38;;;;;;;13.25;5.90;;;;;;;18.03;30.25;100644.31;5012448;28;20567;-78